Terminal Aerodrome Forecast
Issued by NWS Mt. Holly, NJ

Home | Current Version | Previous Version | Text Only | Print | Product List | Glossary On
Versions: 1 2 3 4 5 6 7 8 9 10 11 12 13 14 15 16 17 18 19 20 21 22
242
FTUS41 KPHI 262330
TAFACY
TAF
KACY 262330Z 2700/2724 28008KT P6SM SKC
     FM270400 VRB03KT P6SM SKC
     FM271200 21006KT P6SM BKN100
     FM271800 21010G17KT P6SM SCT060 OVC090
     FM272300 21008KT P6SM SCT060 BKN090=

USA.gov is the U.S. government's official web portal to all federal, state and local government web resources and services.